Time;durP1;ratioP1;P1;durP2;ratioP2;P2;SDS_P1;SDS_P2;PMS_P1;PMS_P2;Temp;Humidity;BMP_temperature;BMP_pressure;BME280_temperature;BME280_humidity;BME280_pressure;Samples;Min_cycle;Max_cycle;Signal;HPM_P1;HPM_P2
2022/10/04 00:01:11;;;;;;;2.40;2.00;;;;;;;12.93;100.00;54106.34;5114926;28;20219;-64
2022/10/04 00:03:43;;;;;;;2.27;2.00;;;;;;;13.06;100.00;54118.56;5115238;28;20194;-64
2022/10/04 00:06:16;;;;;;;2.00;1.90;;;;;;;12.95;100.00;52153.28;5115011;28;20626;-64
2022/10/04 00:08:52;;;;;;;2.40;2.30;;;;;;;12.76;100.00;56047.25;5115024;28;20646;-64
2022/10/04 00:11:25;;;;;;;3.00;2.80;;;;;;;12.86;100.00;61278.66;5114650;28;20195;-64
2022/10/04 00:13:55;;;;;;;2.93;2.37;;;;;;;12.87;100.00;64547.75;5114285;28;20198;-64
2022/10/04 00:16:33;;;;;;;2.00;1.90;;;;;;;12.78;100.00;73375.69;5115179;28;20527;-65
2022/10/04 00:19:22;;;;;;;2.13;2.00;;;;;;;12.73;100.00;74681.19;5114800;28;20642;-64
2022/10/04 00:22:18;;;;;;;1.97;1.87;;;;;;;12.73;100.00;79602.56;5114824;28;20191;-64
2022/10/04 00:25:18;;;;;;;1.30;1.23;;;;;;;12.82;100.00;82570.78;5114480;28;20242;-64
2022/10/04 00:28:27;;;;;;;1.47;1.47;;;;;;;12.78;100.00;90132.75;5114572;28;20484;-65
2022/10/04 00:31:22;;;;;;;2.30;1.50;;;;;;;12.77;100.00;94744.44;5114383;28;20183;-64
2022/10/04 00:33:57;;;;;;;3.60;1.57;;;;;;;12.66;100.00;96706.41;5114601;28;20188;-64
2022/10/04 00:36:40;;;;;;;1.30;1.30;;;;;;;12.73;100.00;99688.81;5114969;28;20179;-65
2022/10/04 00:39:27;;;;;;;1.27;1.20;;;;;;;12.75;100.00;98700.75;5114696;28;20256;-63
2022/10/04 00:42:03;;;;;;;1.30;1.10;;;;;;;12.61;100.00;99008.16;5114741;28;20188;-64
2022/10/04 00:44:37;;;;;;;1.40;1.30;;;;;;;12.70;100.00;102656.13;5114757;28;20669;-64
2022/10/04 00:47:17;;;;;;;1.80;1.50;;;;;;;12.60;100.00;102638.66;5114737;28;20629;-65
2022/10/04 00:49:50;;;;;;;2.37;1.20;;;;;;;12.63;100.00;103305.75;5114598;28;20634;-63
2022/10/04 00:52:23;;;;;;;1.00;1.00;;;;;;;12.72;100.00;105967.22;5114792;28;20544;-64
2022/10/04 00:54:53;;;;;;;1.40;1.37;;;;;;;12.80;100.00;112604.44;5114480;28;20187;-64
2022/10/04 00:57:25;;;;;;;2.10;1.40;;;;;;;12.78;100.00;123224.22;5114487;28;20184;-63
2022/10/04 00:59:55;;;;;;;4.03;1.53;;;;;;;12.81;100.00;121568.38;5114517;28;20626;-64
2022/10/04 01:02:25;;;;;;;3.83;1.33;;;;;;;12.81;100.00;122233.16;5114344;28;20183;-65
2022/10/04 01:04:58;;;;;;;1.60;1.50;;;;;;;12.83;100.00;122902.19;5114217;28;20203;-64
2022/10/04 01:07:29;;;;;;;3.27;1.70;;;;;;;12.77;100.00;113262.66;5115161;28;20183;-64
2022/10/04 01:10:00;;;;;;;1.30;1.20;;;;;;;12.74;100.00;112924.41;5115294;28;20591;-64
2022/10/04 01:12:38;;;;;;;1.10;1.10;;;;;;;12.69;100.00;105961.78;5113684;28;20183;-64
2022/10/04 01:15:08;;;;;;;1.97;1.33;;;;;;;12.72;100.00;106628.94;5115122;28;20183;-64
2022/10/04 01:17:35;;;;;;;1.30;1.20;;;;;;;12.71;100.00;106296.25;5114535;28;20183;-64
2022/10/04 01:20:04;;;;;;;2.00;1.40;;;;;;;12.69;100.00;103315.41;5115207;28;20233;-64
2022/10/04 01:22:37;;;;;;;3.50;1.30;;;;;;;12.69;100.00;99020.78;5114475;28;20194;-65
2022/10/04 01:25:05;;;;;;;1.33;1.20;;;;;;;12.63;100.00;100001.19;5112714;28;20243;-64
2022/10/04 01:27:40;;;;;;;1.50;1.20;;;;;;;12.49;100.00;92721.94;5113289;28;20187;-64
2022/10/04 01:30:10;;;;;;;3.07;1.67;;;;;;;12.43;100.00;88432.75;5113459;28;20189;-65
2022/10/04 01:32:39;;;;;;;1.17;1.17;;;;;;;12.43;100.00;90078.19;5113506;28;20561;-64
2022/10/04 01:35:08;;;;;;;1.30;1.20;;;;;;;12.56;100.00;89111.34;5112991;28;20618;-66
2022/10/04 01:37:38;;;;;;;1.70;1.60;;;;;;;12.58;100.00;91089.88;5112219;28;20183;-64
2022/10/04 01:40:06;;;;;;;1.83;1.33;;;;;;;12.69;100.00;93743.19;5113009;28;20187;-65
2022/10/04 01:42:40;;;;;;;1.43;1.30;;;;;;;12.63;100.00;92415.38;5112707;28;20187;-64
2022/10/04 01:45:14;;;;;;;2.23;1.47;;;;;;;12.63;100.00;95052.34;5113267;28;20203;-64
2022/10/04 01:47:44;;;;;;;1.73;1.47;;;;;;;12.71;100.00;98694.03;5113050;28;20187;-64
2022/10/04 01:50:16;;;;;;;1.57;1.30;;;;;;;12.73;100.00;103653.06;5112721;28;20199;-64
2022/10/04 01:52:50;;;;;;;1.20;1.20;;;;;;;12.81;100.00;105982.56;5113051;28;20190;-64
2022/10/04 01:55:20;;;;;;;1.50;1.27;;;;;;;12.82;100.00;115924.91;5113055;28;20554;-64
2022/10/04 01:57:51;;;;;;;1.90;1.30;;;;;;;12.87;100.00;113944.22;5112759;28;20198;-64
2022/10/04 02:00:23;;;;;;;1.53;1.40;;;;;;;12.72;100.00;121883.16;5113032;28;20184;-65
2022/10/04 02:02:55;;;;;;;4.07;1.43;;;;;;;12.78;100.00;118241.41;5113265;28;20557;-65
2022/10/04 02:05:29;;;;;;;1.43;1.33;;;;;;;12.69;100.00;110927.50;5112608;27;20214;-65
2022/10/04 02:08:03;;;;;;;1.40;1.30;;;;;;;12.67;100.00;101659.56;5112509;28;20185;-64
2022/10/04 02:10:35;;;;;;;1.40;1.30;;;;;;;12.51;100.00;96351.03;5112790;28;20585;-65
2022/10/04 02:13:05;;;;;;;4.80;1.40;;;;;;;12.65;100.00;92747.25;5112563;28;20180;-65
2022/10/04 02:15:38;;;;;;;1.53;1.40;;;;;;;12.67;100.00;94068.84;5112166;28;20186;-64
2022/10/04 02:18:11;;;;;;;1.87;1.77;;;;;;;12.53;100.00;94047.19;5112703;28;20205;-64
2022/10/04 02:20:40;;;;;;;3.33;1.43;;;;;;;12.50;100.00;88114.28;5112187;28;20227;-64
2022/10/04 02:23:11;;;;;;;1.50;1.40;;;;;;;12.47;100.00;88767.84;5112653;28;20610;-65
2022/10/04 02:25:38;;;;;;;1.80;1.70;;;;;;;12.59;100.00;93396.84;5112431;28;20204;-65
2022/10/04 02:28:09;;;;;;;1.90;1.40;;;;;;;12.65;100.00;93077.59;5112395;28;20184;-64
2022/10/04 02:30:37;;;;;;;1.57;1.47;;;;;;;12.31;100.00;93353.03;5112972;28;20252;-65
2022/10/04 02:33:05;;;;;;;1.80;1.70;;;;;;;12.71;100.00;94735.53;5112140;28;20224;-65
2022/10/04 02:35:35;;;;;;;1.47;1.37;;;;;;;12.54;100.00;95367.47;5112940;28;20260;-65
2022/10/04 02:38:09;;;;;;;1.60;1.50;;;;;;;12.67;100.00;97697.13;5116572;28;20183;-64
2022/10/04 02:40:44;;;;;;;1.57;1.57;;;;;;;12.64;100.00;94393.72;5116884;28;20290;-65
2022/10/04 02:43:17;;;;;;;1.70;1.60;;;;;;;12.60;100.00;92739.38;5116708;28;20273;-64
2022/10/04 02:45:51;;;;;;;2.03;1.50;;;;;;;12.52;100.00;87459.31;5116564;28;20211;-64
2022/10/04 02:48:37;;;;;;;3.33;1.50;;;;;;;12.50;100.00;85154.44;5116924;28;20282;-64
2022/10/04 02:51:17;;;;;;;2.60;1.57;;;;;;;12.45;100.00;81204.97;5116274;28;20175;-66
2022/10/04 02:53:52;;;;;;;5.27;1.93;;;;;;;12.30;100.00;79544.00;5116553;28;20193;-65
2022/10/04 02:56:23;;;;;;;3.73;1.40;;;;;;;12.35;100.00;78239.22;5116022;28;20187;-64
2022/10/04 02:58:51;;;;;;;2.30;1.70;;;;;;;12.23;100.00;71015.63;5115989;28;20187;-65
2022/10/04 03:01:26;;;;;;;1.70;1.60;;;;;;;12.28;100.00;71022.34;5116158;28;20180;-64
2022/10/04 03:03:55;;;;;;;5.67;1.60;;;;;;;12.24;100.00;73308.34;5116658;28;20252;-64
2022/10/04 03:06:26;;;;;;;1.80;1.70;;;;;;;12.11;100.00;74274.31;5116342;28;20203;-65
2022/10/04 03:08:56;;;;;;;1.70;1.60;;;;;;;12.22;100.00;69052.16;5115973;28;20282;-64
2022/10/04 03:11:29;;;;;;;2.93;1.63;;;;;;;12.17;100.00;66431.06;5116156;28;20183;-64
2022/10/04 03:13:59;;;;;;;7.53;1.90;;;;;;;12.26;100.00;65134.31;5115915;28;20176;-64
2022/10/04 03:16:27;;;;;;;3.07;1.90;;;;;;;12.30;100.00;66772.81;5115837;28;20190;-64
2022/10/04 03:18:57;;;;;;;2.13;1.63;;;;;;;12.05;100.00;65110.75;5115875;28;20196;-64
2022/10/04 03:21:25;;;;;;;2.43;1.77;;;;;;;12.10;100.00;63810.19;5115546;28;20180;-64
2022/10/04 03:23:53;;;;;;;5.97;2.57;;;;;;;12.15;100.00;63815.16;5115875;28;20194;-65
2022/10/04 03:26:29;;;;;;;3.33;2.27;;;;;;;12.06;100.00;67398.75;5116489;28;20593;-64
2022/10/04 03:28:57;;;;;;;1.43;1.43;;;;;;;12.02;100.00;64780.84;5115861;28;20183;-65
2022/10/04 03:31:26;;;;;;;4.10;1.70;;;;;;;11.91;100.00;65095.06;5115380;28;20187;-64
2022/10/04 03:33:55;;;;;;;2.47;1.90;;;;;;;11.93;100.00;62159.38;5115712;28;20191;-65
2022/10/04 03:36:24;;;;;;;1.93;1.70;;;;;;;11.87;100.00;57264.47;5115708;28;20230;-64
2022/10/04 03:38:55;;;;;;;1.53;1.40;;;;;;;11.89;100.00;56289.34;5115745;27;20187;-64
2022/10/04 03:41:24;;;;;;;5.70;2.50;;;;;;;11.85;100.00;57913.97;5115895;28;20193;-65
2022/10/04 03:43:56;;;;;;;2.57;2.17;;;;;;;11.98;100.00;57926.00;5115063;28;20232;-64
2022/10/04 03:46:25;;;;;;;9.37;2.33;;;;;;;11.70;100.00;52691.59;5115052;28;20203;-65
2022/10/04 03:48:55;;;;;;;2.30;2.20;;;;;;;11.65;100.00;48137.13;5114497;28;20191;-64
2022/10/04 03:51:24;;;;;;;4.30;2.57;;;;;;;11.54;100.00;47479.00;5115263;28;20561;-66
2022/10/04 03:53:54;;;;;;;3.43;1.97;;;;;;;11.44;100.00;44226.97;5114958;28;20188;-64
2022/10/04 03:56:26;;;;;;;2.13;2.03;;;;;;;11.40;100.00;40335.28;5114921;28;20190;-64
2022/10/04 03:58:55;;;;;;;5.30;2.90;;;;;;;11.34;100.00;38388.22;5114836;28;20283;-65
2022/10/04 04:01:35;;;;;;;4.13;2.57;;;;;;;11.13;100.00;34494.16;5115098;28;20183;-65
2022/10/04 04:04:12;;;;;;;2.47;2.27;;;;;;;11.23;100.00;32884.66;5115275;28;20531;-65
2022/10/04 04:06:46;;;;;;;8.17;2.23;;;;;;;11.14;100.00;34171.31;5115227;28;20199;-64
2022/10/04 04:09:21;;;;;;;2.43;2.33;;;;;;;11.28;100.00;33857.00;5115013;28;20182;-64
2022/10/04 04:11:50;;;;;;;4.97;2.57;;;;;;;11.36;100.00;34831.31;5114564;28;20197;-64
2022/10/04 04:14:24;;;;;;;2.63;2.43;;;;;;;11.23;100.00;35470.09;5114767;28;20186;-64
2022/10/04 04:16:52;;;;;;;3.87;2.47;;;;;;;11.18;100.00;33527.81;5114263;28;20199;-64
2022/10/04 04:19:29;;;;;;;9.73;3.37;;;;;;;11.10;100.00;32554.00;5114269;28;20229;-64
2022/10/04 04:21:57;;;;;;;4.83;2.63;;;;;;;11.14;100.00;32233.41;5114309;28;20187;-65
2022/10/04 04:24:27;;;;;;;5.17;4.00;;;;;;;11.23;100.00;30624.06;5114667;27;20290;-65
2022/10/04 04:26:58;;;;;;;4.93;2.87;;;;;;;11.29;100.00;31919.09;5114357;28;20330;-63
2022/10/04 04:29:32;;;;;;;4.10;3.10;;;;;;;11.38;100.00;34186.31;5114444;28;20179;-64
2022/10/04 04:32:02;;;;;;;3.10;2.90;;;;;;;11.38;100.00;35156.22;5114019;28;20187;-65
2022/10/04 04:34:31;;;;;;;6.17;3.50;;;;;;;11.45;100.00;36777.94;5112848;28;20657;-64
2022/10/04 04:37:00;;;;;;;5.70;3.00;;;;;;;11.55;100.00;40993.19;5113765;28;20180;-65
2022/10/04 04:39:36;;;;;;;6.23;2.23;;;;;;;11.56;100.00;42938.50;5113902;28;20184;-64
2022/10/04 04:42:10;;;;;;;2.40;2.30;;;;;;;11.57;100.00;44885.00;5113904;28;20183;-65
2022/10/04 04:44:46;;;;;;;3.03;2.60;;;;;;;11.71;100.00;42950.22;5114182;28;20633;-64
2022/10/04 04:47:26;;;;;;;2.50;2.27;;;;;;;12.28;100.00;55023.75;5113753;28;20214;-65
2022/10/04 04:49:53;;;;;;;3.80;2.50;;;;;;;12.90;100.00;94104.97;5114080;28;20179;-64
2022/10/04 04:52:25;;;;;;;2.70;2.30;;;;;;;13.47;100.00;144972.81;5114354;28;20183;-64
2022/10/04 04:54:53;;;;;;;2.60;2.40;;;;;;;13.48;100.00;149427.38;5113998;28;20615;-65
2022/10/04 04:57:20;;;;;;;2.30;2.00;;;;;;;13.68;100.00;149476.75;5113784;28;20183;-63
2022/10/04 04:59:53;;;;;;;4.00;1.87;;;;;;;14.14;100.00;149593.34;5112835;28;20204;-65
2022/10/04 05:02:33;;;;;;;3.77;2.10;;;;;;;14.05;100.00;149570.53;5113465;28;20270;-63
2022/10/04 05:05:22;;;;;;;6.80;2.20;;;;;;;14.08;100.00;149578.19;5113521;28;20191;-57
2022/10/04 05:07:50;;;;;;;6.40;2.57;;;;;;;14.40;100.00;149656.78;5113490;28;20656;-56
2022/10/04 05:10:27;;;;;;;2.57;2.37;;;;;;;15.00;100.00;149807.69;5113582;28;20179;-57
2022/10/04 05:12:54;;;;;;;7.00;2.63;;;;;;;15.65;100.00;149970.16;5113030;28;20257;-57
2022/10/04 05:15:23;;;;;;;10.90;2.63;;;;;;;15.82;100.00;150014.59;5112828;28;20183;-65
2022/10/04 05:17:50;;;;;;;9.57;2.43;;;;;;;15.87;100.00;150027.25;5113205;28;20634;-65
2022/10/04 05:20:18;;;;;;;12.83;2.60;;;;;;;16.37;100.00;150152.97;5112830;28;20262;-63
2022/10/04 05:22:49;;;;;;;5.87;1.93;;;;;;;16.35;100.00;150146.59;5112686;28;20215;-65
2022/10/04 05:25:25;;;;;;;5.10;2.33;;;;;;;15.81;100.00;150012.03;5112920;28;20274;-64
2022/10/04 05:27:54;;;;;;;7.77;2.20;;;;;;;15.53;100.00;149942.22;5112664;28;20183;-64
2022/10/04 05:30:35;;;;;;;5.80;1.80;;;;;;;15.53;100.00;149941.00;5112915;28;20631;-63
2022/10/04 05:33:05;;;;;;;10.40;2.33;;;;;;;15.54;100.00;149944.75;5112417;27;20202;-64
2022/10/04 05:35:45;;;;;;;4.97;2.30;;;;;;;15.68;100.00;149979.03;5112901;28;20222;-63
2022/10/04 05:38:26;;;;;;;2.63;2.43;;;;;;;15.77;100.00;150001.88;5112679;28;20185;-64
2022/10/04 05:41:02;;;;;;;4.77;2.30;;;;;;;16.16;100.00;150099.63;5112668;28;20187;-64
2022/10/04 05:43:32;;;;;;;6.90;2.37;;;;;;;16.36;100.00;150150.41;5112761;28;20206;-63
2022/10/04 05:46:28;;;;;;;7.03;3.07;;;;;;;16.37;100.00;150151.69;5112134;28;20297;-64
2022/10/04 05:48:58;;;;;;;7.90;3.77;;;;;;;16.50;100.00;150183.44;5076446;28;20209;-63
2022/10/04 05:51:28;;;;;;;2.77;2.23;;;;;;;16.80;100.00;150260.91;5112296;28;20545;-63
2022/10/04 05:53:58;;;;;;;6.93;2.40;;;;;;;17.19;100.00;150357.47;5112280;28;20206;-63
2022/10/04 05:57:07;;;;;;;6.97;5.77;;;;;;;17.64;100.00;150471.91;5112296;28;20573;-63
2022/10/04 06:00:04;;;;;;;6.60;4.70;;;;;;;18.82;100.00;150766.91;5086380;28;20205;-64
2022/10/04 06:02:45;;;;;;;6.83;3.73;;;;;;;18.91;100.00;150791.09;5112085;28;20183;-64
2022/10/04 06:05:18;;;;;;;9.00;3.97;;;;;;;19.13;100.00;150845.81;5112059;27;20561;-63
2022/10/04 06:07:53;;;;;;;5.30;2.50;;;;;;;19.44;100.00;150924.72;5112016;28;20213;-63
2022/10/04 06:10:56;;;;;;;9.00;2.30;;;;;;;19.88;100.00;151035.47;5112267;28;20187;-63
2022/10/04 06:13:43;;;;;;;3.00;1.80;;;;;;;20.05;100.00;151077.47;5111714;28;20190;-64
2022/10/04 06:16:23;;;;;;;5.53;1.57;;;;;;;20.29;100.00;151138.63;5111955;28;20199;-64
2022/10/04 06:19:24;;;;;;;3.17;2.07;;;;;;;20.28;100.00;151136.06;5111439;28;20198;-64
2022/10/04 06:22:17;;;;;;;3.77;2.10;;;;;;;20.32;100.00;151145.03;5111348;28;20591;-63
2022/10/04 06:24:48;;;;;;;3.27;2.33;;;;;;;20.45;100.00;151179.38;5112077;28;20193;-64
2022/10/04 06:27:21;;;;;;;4.70;2.20;;;;;;;20.77;100.00;151258.34;5110752;28;20222;-63
2022/10/04 06:29:52;;;;;;;2.87;2.50;;;;;;;20.85;100.00;151280.00;5111375;28;20183;-63
2022/10/04 06:32:44;;;;;;;15.20;4.97;;;;;;;20.99;100.00;151314.41;5111838;28;20193;-63
2022/10/04 06:35:47;;;;;;;7.27;2.83;;;;;;;21.05;100.00;151329.66;5112329;28;20606;-63
2022/10/04 06:38:36;;;;;;;3.63;2.15;;;;;;;21.27;100.00;151385.78;5107738;28;20201;-63
2022/10/04 06:41:25;;;;;;;6.50;2.10;;;;;;;21.41;100.00;151421.50;5111490;28;20266;-64
2022/10/04 06:44:22;;;;;;;10.45;3.03;;;;;;;21.67;100.00;151486.47;5111384;28;20191;-63
2022/10/04 06:46:52;;;;;;;4.10;1.90;;;;;;;21.51;100.00;151445.72;5111506;28;20306;-64
2022/10/04 06:49:42;;;;;;;4.83;1.80;;;;;;;21.72;99.69;151497.97;5111403;28;20183;-63
2022/10/04 06:52:24;;;;;;;1.58;1.48;;;;;;;22.03;97.52;151577.00;5111668;28;20188;-63
2022/10/04 06:55:23;;;;;;;8.30;1.95;;;;;;;22.57;92.86;151713.50;5112132;28;20222;-63
2022/10/04 06:58:07;;;;;;;1.85;1.40;;;;;;;22.86;88.64;151786.22;5095931;28;20211;-63
2022/10/04 07:00:41;;;;;;;1.27;1.17;;;;;;;23.50;81.19;151947.03;5111406;28;20613;-62
2022/10/04 07:03:14;;;;;;;4.03;1.55;;;;;;;23.72;76.44;152001.94;5111822;28;20195;-63
2022/10/04 07:05:46;;;;;;;1.13;1.13;;;;;;;24.35;73.84;152161.53;5111547;28;20187;-63
2022/10/04 07:08:29;;;;;;;1.60;0.88;;;;;;;24.65;69.06;152238.16;5111451;28;20294;-64
2022/10/04 07:11:00;;;;;;;1.15;1.00;;;;;;;24.99;67.16;152325.03;5111895;28;20184;-62
2022/10/04 07:13:43;;;;;;;1.65;0.80;;;;;;;25.07;61.51;152342.94;5111714;28;20195;-62
2022/10/04 07:16:27;;;;;;;0.82;0.73;;;;;;;24.96;60.88;152317.38;5110048;28;20205;-62
2022/10/04 07:19:00;;;;;;;3.25;1.02;;;;;;;25.01;62.74;152328.88;5114956;28;20557;-61
2022/10/04 07:21:36;;;;;;;0.68;0.68;;;;;;;25.28;63.47;152396.59;5132266;28;20183;-61
2022/10/04 07:24:13;;;;;;;2.08;0.90;;;;;;;25.48;60.98;152449.00;5134547;27;20595;-61
2022/10/04 07:26:46;;;;;;;0.82;0.82;;;;;;;25.65;59.12;152491.22;5135340;27;20205;-62
2022/10/04 07:29:20;;;;;;;1.10;0.77;;;;;;;25.30;57.07;152402.97;5135555;27;20186;-62
2022/10/04 07:31:52;;;;;;;3.60;1.30;;;;;;;24.89;62.27;152298.22;5120202;27;20194;-62
2022/10/04 07:34:26;;;;;;;1.02;0.70;;;;;;;25.22;61.63;152381.25;5129297;27;20237;-63
2022/10/04 07:36:55;;;;;;;0.73;0.73;;;;;;;25.00;63.92;152326.31;5115085;28;20179;-62
2022/10/04 07:39:27;;;;;;;2.03;0.80;;;;;;;24.89;64.32;152298.22;5114836;28;20183;-62
2022/10/04 07:41:57;;;;;;;1.10;0.90;;;;;;;24.44;64.89;152185.78;5114716;28;20195;-62
2022/10/04 07:44:35;;;;;;;1.08;1.08;;;;;;;24.37;67.85;152166.63;5115008;28;20183;-62
2022/10/04 07:47:09;;;;;;;0.90;0.90;;;;;;;24.98;67.89;152321.22;5111415;28;20252;-61
2022/10/04 07:49:40;;;;;;;1.63;1.00;;;;;;;25.25;67.40;152388.97;5114056;28;20182;-62
2022/10/04 07:52:27;;;;;;;5.55;1.90;;;;;;;25.17;64.08;152369.75;5114552;28;20219;-61
2022/10/04 07:55:05;;;;;;;2.08;1.38;;;;;;;25.35;64.66;152414.47;5114676;28;20694;-61
2022/10/04 07:57:43;;;;;;;3.70;1.20;;;;;;;25.10;61.34;152350.59;5114968;28;20180;-61
2022/10/04 08:00:16;;;;;;;1.60;0.85;;;;;;;24.97;61.11;152318.66;5114443;28;20242;-61
2022/10/04 08:02:52;;;;;;;1.00;1.00;;;;;;;25.21;63.77;152378.69;5113798;28;20184;-62
2022/10/04 08:05:24;;;;;;;1.33;1.08;;;;;;;25.81;63.55;152530.81;5112025;28;20191;-61
2022/10/04 08:08:16;;;;;;;2.45;0.98;;;;;;;26.42;59.75;152685.56;5114387;28;20585;-62
2022/10/04 08:10:55;;;;;;;1.13;1.08;;;;;;;26.23;57.98;152638.22;5114839;28;20218;-62
2022/10/04 08:13:32;;;;;;;1.20;1.00;;;;;;;26.10;58.27;152604.94;5114045;28;20695;-62
2022/10/04 08:16:03;;;;;;;1.90;0.90;;;;;;;26.46;57.02;152695.78;5114382;28;20597;-62
2022/10/04 08:18:42;;;;;;;1.33;0.90;;;;;;;26.75;54.32;152768.66;5113849;28;20191;-63
2022/10/04 08:21:14;;;;;;;3.58;1.80;;;;;;;26.70;56.30;152757.16;5114058;28;20219;-63
2022/10/04 08:23:54;;;;;;;1.20;1.10;;;;;;;27.12;51.88;152862.06;5114411;28;20203;-62
2022/10/04 08:26:36;;;;;;;1.30;1.30;;;;;;;27.15;52.37;152869.78;5113958;28;20179;-63
2022/10/04 08:32:22;;;;;;;2.42;0.90;;;;;;;28.04;47.69;153095.03;5114236;28;20169;-64
2022/10/04 08:35:15;;;;;;;1.75;0.98;;;;;;;28.70;47.76;153261.53;5095520;28;20286;-63
2022/10/04 08:37:58;;;;;;;0.90;0.90;;;;;;;28.74;44.52;153271.75;5107054;27;20672;-65
2022/10/04 08:40:47;;;;;;;3.03;0.40;;;;;;;27.06;42.19;152846.75;5094797;28;20727;-63
2022/10/04 08:44:09;;;;;;;0.55;0.55;;;;;;;26.62;44.23;152735.41;5110729;28;20689;-63
2022/10/04 08:47:11;;;;;;;3.33;0.65;;;;;;;26.36;45.02;152671.47;5057585;28;20193;-63
2022/10/04 08:50:23;;;;;;;0.80;0.73;;;;;;;27.10;44.00;152856.97;5060429;28;20713;-64
2022/10/04 08:53:08;;;;;;;2.90;0.90;;;;;;;28.10;44.64;153110.41;5010411;28;20225;-63
2022/10/04 08:55:58;;;;;;;1.20;0.50;;;;;;;25.96;43.67;152569.19;5079675;28;20196;-62
2022/10/04 08:58:46;;;;;;;0.50;0.50;;;;;;;26.31;45.03;152657.41;5060431;28;20286;-62
2022/10/04 09:01:43;;;;;;;0.47;0.47;;;;;;;26.80;45.25;152782.75;5062250;28;20624;-63
2022/10/04 09:04:42;;;;;;;2.05;1.10;;;;;;;29.16;42.37;153379.34;5050741;28;20207;-63
2022/10/04 09:07:38;;;;;;;0.55;0.55;;;;;;;28.15;41.22;153123.22;5071455;28;20224;-64
2022/10/04 09:10:41;;;;;;;0.65;0.65;;;;;;;27.05;43.52;152845.47;5069940;28;21016;-63
2022/10/04 09:13:43;;;;;;;0.70;0.70;;;;;;;26.15;45.63;152617.75;5050330;28;20188;-63
2022/10/04 09:16:18;;;;;;;1.02;0.63;;;;;;;26.12;46.86;152608.78;5082452;27;20195;-64
2022/10/04 09:19:19;;;;;;;1.13;0.70;;;;;;;26.01;46.45;152580.69;5130896;27;20690;-63
2022/10/04 09:22:10;;;;;;;0.60;0.60;;;;;;;25.39;48.23;152425.97;5112922;28;20278;-63
2022/10/04 09:25:13;;;;;;;1.20;0.75;;;;;;;25.27;48.87;152394.03;5113006;28;20606;-64
2022/10/04 09:27:57;;;;;;;0.70;0.70;;;;;;;25.11;50.34;152354.44;5112704;28;20765;-66
2022/10/04 09:30:37;;;;;;;1.65;0.82;;;;;;;24.67;52.57;152243.25;5113291;28;20190;-66
2022/10/04 09:33:24;;;;;;;0.70;0.70;;;;;;;24.61;55.88;152226.66;5113066;28;20585;-66
2022/10/04 09:36:15;;;;;;;2.30;0.63;;;;;;;23.80;54.25;152023.63;5124991;27;20193;-65
2022/10/04 09:39:11;;;;;;;0.70;0.70;;;;;;;22.62;59.51;151726.22;5133810;27;20175;-66
2022/10/04 09:41:55;;;;;;;0.73;0.70;;;;;;;22.37;62.80;151662.44;5115369;27;20186;-67
2022/10/04 09:44:46;;;;;;;1.25;0.73;;;;;;;22.42;66.47;151673.91;5133596;27;20183;-67
2022/10/04 09:47:36;;;;;;;1.33;0.70;;;;;;;22.29;67.24;151643.31;5132662;27;20239;-66
2022/10/04 09:50:56;;;;;;;0.90;0.90;;;;;;;22.10;68.50;151594.91;5133416;27;20178;-66
2022/10/04 09:53:51;;;;;;;4.47;0.77;;;;;;;21.83;68.72;151526.00;5114238;27;20190;-67
2022/10/04 09:56:52;;;;;;;0.70;0.70;;;;;;;21.77;69.50;151510.66;5130433;27;20550;-67
2022/10/04 09:59:49;;;;;;;0.90;0.90;;;;;;;21.59;70.85;151464.81;5117880;27;20285;-66
2022/10/04 10:03:02;;;;;;;0.73;0.73;;;;;;;20.46;77.28;151181.91;5133334;27;20524;-67
2022/10/04 10:05:48;;;;;;;1.58;0.90;;;;;;;20.31;88.56;151143.75;5095888;27;20198;-66
2022/10/04 10:08:23;;;;;;;1.40;1.30;;;;;;;20.19;96.14;151113.13;5132958;27;20736;-67
2022/10/04 10:14:17;;;;;;;3.30;1.90;;;;;;;20.03;97.87;151072.34;5132900;27;20185;-66
2022/10/04 10:17:00;;;;;;;2.43;1.97;;;;;;;19.84;98.48;151024.00;5133079;27;20183;-68
2022/10/04 10:20:02;;;;;;;3.30;1.70;;;;;;;19.77;98.35;151007.47;5132830;27;20241;-66
2022/10/04 10:23:04;;;;;;;2.03;1.30;;;;;;;19.71;98.08;150990.91;5111317;27;20629;-66
2022/10/04 10:25:47;;;;;;;8.50;2.97;;;;;;;19.66;98.95;150979.44;5132928;27;20189;-66
2022/10/04 10:28:53;;;;;;;3.63;1.63;;;;;;;19.59;99.13;150962.94;5114248;28;20206;-66
2022/10/04 10:31:45;;;;;;;3.93;2.00;;;;;;;19.30;100.00;150889.06;5122185;28;20683;-66
2022/10/04 10:34:51;;;;;;;2.90;1.47;;;;;;;19.24;100.00;150872.50;5132996;28;20668;-67
2022/10/04 10:37:33;;;;;;;1.97;1.40;;;;;;;19.24;100.00;150873.78;5045823;28;20265;-66
2022/10/04 10:40:29;;;;;;;1.33;1.23;;;;;;;19.21;100.00;150866.16;5132411;28;20191;-67
2022/10/04 10:43:19;;;;;;;1.60;1.50;;;;;;;19.24;100.00;150873.78;5106988;28;20201;-66
2022/10/04 10:46:04;;;;;;;4.20;2.03;;;;;;;19.33;100.00;150895.41;5132203;28;20189;-65
2022/10/04 10:48:59;;;;;;;2.20;1.90;;;;;;;19.33;100.00;150895.41;5132206;28;20202;-67
2022/10/04 10:51:43;;;;;;;5.37;1.97;;;;;;;19.47;100.00;150932.38;5089389;28;20203;-66
2022/10/04 10:54:36;;;;;;;2.10;1.97;;;;;;;19.37;100.00;150905.59;5132814;28;20309;-66
2022/10/04 10:57:21;;;;;;;4.90;2.50;;;;;;;19.45;100.00;150926.00;5133503;27;20205;-66
2022/10/04 11:00:09;;;;;;;2.50;1.70;;;;;;;19.36;100.00;150904.31;5134077;27;20190;-66
2022/10/04 11:03:19;;;;;;;3.20;2.30;;;;;;;19.48;100.00;150933.63;5115630;28;20286;-66
2022/10/04 11:06:16;;;;;;;4.57;2.13;;;;;;;19.50;100.00;150940.00;5115967;28;20240;-65
2022/10/04 11:09:14;;;;;;;3.00;2.73;;;;;;;19.14;100.00;150848.31;5115846;28;20243;-67
2022/10/04 11:12:03;;;;;;;2.67;2.20;;;;;;;19.46;100.00;150928.56;5115469;28;20190;-66
2022/10/04 11:15:06;;;;;;;4.77;2.40;;;;;;;19.42;100.00;150919.59;5115380;28;20204;-65
2022/10/04 11:17:55;;;;;;;2.80;1.33;;;;;;;19.13;100.00;150845.81;5115846;28;20758;-66
2022/10/04 11:21:03;;;;;;;3.60;1.37;;;;;;;19.18;100.00;150859.75;5115067;28;20317;-66
2022/10/04 11:24:07;;;;;;;1.30;1.20;;;;;;;19.08;100.00;150834.34;5077596;28;20684;-66
2022/10/04 11:26:57;;;;;;;1.67;1.57;;;;;;;19.27;100.00;150880.13;5115193;28;20188;-66
2022/10/04 11:29:54;;;;;;;1.40;1.30;;;;;;;19.38;100.00;150909.44;5115142;28;20290;-66
2022/10/04 11:33:16;;;;;;;4.77;1.70;;;;;;;19.38;100.00;150909.44;5115485;28;20287;-65
2022/10/04 11:36:23;;;;;;;1.90;1.20;;;;;;;19.32;100.00;150892.84;5098109;28;20240;-66
2022/10/04 11:39:14;;;;;;;1.20;1.10;;;;;;;19.48;99.81;150933.63;5114396;28;20581;-66
2022/10/04 11:41:51;;;;;;;6.73;1.73;;;;;;;19.78;99.76;151010.00;5114822;28;20547;-66
2022/10/04 11:44:50;;;;;;;1.60;1.50;;;;;;;19.94;97.35;151049.47;5115414;28;20266;-65
2022/10/04 11:47:48;;;;;;;4.70;1.70;;;;;;;20.10;95.88;151090.22;5110479;28;20256;-66
2022/10/04 11:50:28;;;;;;;8.83;2.40;;;;;;;20.05;96.77;151077.47;5107988;28;20546;-66
2022/10/04 11:53:36;;;;;;;2.70;1.57;;;;;;;19.80;98.17;151015.09;5114660;28;20378;-65
2022/10/04 11:56:28;;;;;;;1.50;1.40;;;;;;;19.92;98.11;151044.38;5114988;28;20284;-65
2022/10/04 11:59:18;;;;;;;6.00;2.30;;;;;;;20.03;100.00;151072.34;5115249;28;20223;-66
2022/10/04 12:02:16;;;;;;;1.53;1.43;;;;;;;20.11;96.12;151092.78;5112747;28;20234;-66
2022/10/04 12:04:57;;;;;;;1.00;1.00;;;;;;;20.26;90.60;151129.66;5088622;28;20199;-66
2022/10/04 12:07:45;;;;;;;1.00;1.00;;;;;;;20.32;86.06;151146.31;5114964;28;20190;-65
2022/10/04 12:10:27;;;;;;;0.80;0.80;;;;;;;20.51;86.99;151194.66;5113771;27;20191;-65
2022/10/04 12:13:20;;;;;;;1.77;0.90;;;;;;;20.69;84.83;151239.25;5134733;27;20183;-66
2022/10/04 12:16:00;;;;;;;1.27;0.80;;;;;;;20.63;81.84;151223.94;5134716;27;20195;-66
2022/10/04 12:18:44;;;;;;;0.80;0.80;;;;;;;20.79;77.74;151263.47;5134640;27;20277;-65
2022/10/04 12:21:27;;;;;;;0.73;0.68;;;;;;;20.76;78.72;151257.06;5134770;27;20566;-66
2022/10/04 12:24:15;;;;;;;0.70;0.70;;;;;;;20.94;77.09;151302.94;5134950;27;20179;-66
2022/10/04 12:27:04;;;;;;;3.47;1.10;;;;;;;21.07;75.20;151334.78;5134858;27;20183;-66
2022/10/04 12:30:07;;;;;;;0.65;0.65;;;;;;;20.86;77.07;151281.28;5135174;27;20206;-66